Weather at Hartsfield Jackson Atlanta International Airport

Public forecast

Using degrees Fahrenheit for public forecast. Weather courtesy of forecast.io.

Current aviation weather report (METAR) for Hartsfield Jackson Atlanta International Airport

2022/11/30 10:52 (retrieved 11 minutes ago)

KATL 301052Z 24004KT 4SM -RA BR FEW020 SCT055 OVC075 16/14 A2997 RMK AO2 PK WND 27029/0953 LTG DSNT ALQDS TSE51 SLP143 TS MOV E CB DSNT ALQDS P0021 T01560139

Aviation forecast (TAF) for Hartsfield Jackson Atlanta International Airport

2022/11/30 10:40 Ammendment (retrieved 23 minutes ago)

TAF AMD KATL 300938Z 3010/0112 21010KT 6SM SHRA BR SCT004 BKN010 OVC040 TEMPO 3010/3012 23025G35KT 3SM TSRA BR BKN004CB FM301300 27009KT P6SM VCSH OVC020 FM301600 32015G25KT P6SM BKN040 FM301800 32015G25KT P6SM FEW250